Askabat — TCCA7 — position and weather

sailwx.info

Track history (hours):
 
Tides and Currents Weather Stations Pressure Air Temp Water Temp Dewpoint Dewpoint Depression Visibility Wind Speed Wind Dir Waves Ship Positions

Askabat

Last reported at 2018-Jul-17 18:43 UTC. Time now 2018-Jul-18 05:02 UTC.
Position N 36°50' E 012°54'.

Length 163 m; draft 10.6 m.

Type: Cargo ship. MMSI: 271000672.

Date/timePositionNaut miles runAvg speedWind from/ knotsBaromVisibWave heightAir tempDewpointWater temp
2018-Jul-17 18:43N 36°50' E 012°54'312.0
2018-Jul-17 18:30N 36°49' E 012°57'611.8
2018-Jul-17 18:00N 36°46' E 013°03'611.8
2018-Jul-17 17:31N 36°44' E 013°10'611.2
2018-Jul-17 16:59N 36°41' E 013°17'510.7
2018-Jul-17 16:30N 36°40' E 013°23'610.9
2018-Jul-17 16:00N 36°38' E 013°29'511.1
2018-Jul-17 15:30N 36°35' E 013°35'910.9
2018-Jul-17 14:40N 36°32' E 013°46'210.9
2018-Jul-17 14:29N 36°31' E 013°48'510.5
2018-Jul-17 13:59N 36°29' E 013°54'510.5
2018-Jul-17 13:30N 36°27' E 013°60'710.6
2018-Jul-17 12:54N 36°24' E 014°07'611.1
2018-Jul-17 12:22N 36°22' E 014°14'411.4
2018-Jul-17 11:59N 36°21' E 014°19'611.5
2018-Jul-17 11:29N 36°21' E 014°26'511.4
2018-Jul-17 11:01N 36°20' E 014°33'611.3
2018-Jul-17 10:30N 36°20' E 014°40'611.1
2018-Jul-17 10:00N 36°20' E 014°47'1510.9
2018-Jul-17 08:39N 36°20' E 015°05'511.5
2018-Jul-17 08:16N 36°20' E 015°11'311.8
2018-Jul-17 08:00N 36°20' E 015°15'611.9
2018-Jul-17 07:29N 36°20' E 015°22'612.3
2018-Jul-17 07:00N 36°20' E 015°30'38711.8
2018-Jul-15 22:13N 36°48' E 023°30'312.9
2018-Jul-15 22:00N 36°50' E 023°31'713.0
2018-Jul-15 21:30N 36°56' E 023°35'1212.8
2018-Jul-15 20:36N 37°06' E 023°43'112.8
2018-Jul-15 20:30N 37°07' E 023°44'612.7
2018-Jul-15 20:01N 37°12' E 023°48'1312.8
2018-Jul-15 18:58N 37°23' E 023°57'612.3
2018-Jul-15 18:30N 37°29' E 024°01'812.4
2018-Jul-15 17:53N 37°35' E 024°06'1312.6
2018-Jul-15 16:53N 37°45' E 024°15'  
Track history (hours):
 
Tides and Currents Weather Stations Pressure Air Temp Water Temp Dewpoint Dewpoint Depression Visibility Wind Speed Wind Dir Waves Ship Positions

Askabat

Last reported at 2018-Jul-17 18:43 UTC. Time now 2018-Jul-18 05:02 UTC.
Position N 36°50' E 012°54'.

Length 163 m; draft 10.6 m.

Type: Cargo ship. MMSI: 271000672.

Date/timePositionNaut miles runAvg speedWind from/ knotsBaromVisibWave heightAir tempDewpointWater temp
2018-Jul-17 18:43N 36°50' E 012°54'312.0
2018-Jul-17 18:30N 36°49' E 012°57'611.8
2018-Jul-17 18:00N 36°46' E 013°03'611.8
2018-Jul-17 17:31N 36°44' E 013°10'611.2
2018-Jul-17 16:59N 36°41' E 013°17'510.7
2018-Jul-17 16:30N 36°40' E 013°23'610.9
2018-Jul-17 16:00N 36°38' E 013°29'511.1
2018-Jul-17 15:30N 36°35' E 013°35'910.9
2018-Jul-17 14:40N 36°32' E 013°46'210.9
2018-Jul-17 14:29N 36°31' E 013°48'510.5
2018-Jul-17 13:59N 36°29' E 013°54'510.5
2018-Jul-17 13:30N 36°27' E 013°60'710.6
2018-Jul-17 12:54N 36°24' E 014°07'611.1
2018-Jul-17 12:22N 36°22' E 014°14'411.4
2018-Jul-17 11:59N 36°21' E 014°19'611.5
2018-Jul-17 11:29N 36°21' E 014°26'511.4
2018-Jul-17 11:01N 36°20' E 014°33'611.3
2018-Jul-17 10:30N 36°20' E 014°40'611.1
2018-Jul-17 10:00N 36°20' E 014°47'1510.9
2018-Jul-17 08:39N 36°20' E 015°05'511.5
2018-Jul-17 08:16N 36°20' E 015°11'311.8
2018-Jul-17 08:00N 36°20' E 015°15'611.9
2018-Jul-17 07:29N 36°20' E 015°22'612.3
2018-Jul-17 07:00N 36°20' E 015°30'38711.8
2018-Jul-15 22:13N 36°48' E 023°30'312.9
2018-Jul-15 22:00N 36°50' E 023°31'713.0
2018-Jul-15 21:30N 36°56' E 023°35'1212.8
2018-Jul-15 20:36N 37°06' E 023°43'112.8
2018-Jul-15 20:30N 37°07' E 023°44'612.7
2018-Jul-15 20:01N 37°12' E 023°48'1312.8
2018-Jul-15 18:58N 37°23' E 023°57'612.3
2018-Jul-15 18:30N 37°29' E 024°01'812.4
2018-Jul-15 17:53N 37°35' E 024°06'1312.6
2018-Jul-15 16:53N 37°45' E 024°15'  

Dump ship's entire track history